Time;durP1;ratioP1;P1;durP2;ratioP2;P2;SDS_P1;SDS_P2;PMS_P1;PMS_P2;Temp;Humidity;BMP_temperature;BMP_pressure;BME280_temperature;BME280_humidity;BME280_pressure;Samples;Min_cycle;Max_cycle;Signal;HPM_P1;HPM_P2
2022/07/28 00:01:07;;;;;;;1999.90;999.90;;;;;;;;;;5169267;27;20224;-79
2022/07/28 00:03:35;;;;;;;1999.90;999.90;;;;;;;;;;5139190;27;20300;-80
2022/07/28 00:06:03;;;;;;;1999.90;999.90;;;;;;;;;;5172720;27;20224;-79
2022/07/28 00:08:31;;;;;;;1999.90;999.90;;;;;;;;;;5156667;27;20221;-78
2022/07/28 00:10:59;;;;;;;1999.90;999.90;;;;;;;;;;5154575;27;21395;-79
2022/07/28 00:13:28;;;;;;;1999.90;999.90;;;;;;;;;;5170705;27;20799;-80
2022/07/28 00:15:56;;;;;;;1999.90;999.90;;;;;;;;;;5154599;27;20285;-80
2022/07/28 00:18:24;;;;;;;1999.90;999.90;;;;;;;;;;5172795;27;20280;-79
2022/07/28 00:20:51;;;;;;;1999.90;999.90;;;;;;;;;;5151721;27;20230;-81
2022/07/28 00:23:19;;;;;;;1999.90;999.90;;;;;;;;;;5186142;27;20226;-80
2022/07/28 00:25:47;;;;;;;1999.90;999.90;;;;;;;;;;5138693;27;20293;-79
2022/07/28 00:28:14;;;;;;;1999.90;999.90;;;;;;;;;;5162466;27;20237;-80
2022/07/28 00:30:44;;;;;;;1999.90;999.90;;;;;;;;;;5155611;27;20237;-80
2022/07/28 00:33:12;;;;;;;1999.90;999.90;;;;;;;;;;5173798;27;20216;-79
2022/07/28 00:35:40;;;;;;;1999.90;999.90;;;;;;;;;;5168386;27;20228;-79
2022/07/28 00:38:15;;;;;;;1999.90;999.90;;;;;;;;;;5168834;27;20607;-79
2022/07/28 00:43:29;;;;;;;1999.90;999.90;;;;;;;;;;5154151;27;20248;-79
2022/07/28 00:45:58;;;;;;;1999.90;999.90;;;;;;;;;;5156622;27;20225;-79
2022/07/28 00:48:26;;;;;;;1999.90;999.90;;;;;;;;;;5154959;27;20231;-79
2022/07/28 00:50:53;;;;;;;1999.90;999.90;;;;;;;;;;5155915;27;20227;-78
2022/07/28 00:53:22;;;;;;;1999.90;999.90;;;;;;;;;;5174524;27;20232;-81
2022/07/28 00:55:50;;;;;;;1999.90;999.90;;;;;;;;;;5156296;27;20327;-78
2022/07/28 00:58:33;;;;;;;1999.90;999.90;;;;;;;;;;5154703;27;20263;-82
2022/07/28 01:01:02;;;;;;;1999.90;999.90;;;;;;;;;;5171245;27;20960;-79
2022/07/28 01:03:30;;;;;;;1999.90;999.90;;;;;;;;;;5168034;27;20279;-79
2022/07/28 01:06:02;;;;;;;1999.90;999.90;;;;;;;;;;5151997;27;20279;-78
2022/07/28 01:08:35;;;;;;;1999.90;999.90;;;;;;;;;;5172344;27;20229;-79
2022/07/28 01:11:06;;;;;;;1999.90;999.90;;;;;;;;;;5171056;27;20680;-79
2022/07/28 01:13:38;;;;;;;1999.90;999.90;;;;;;;;;;5152061;27;21439;-80
2022/07/28 01:16:08;;;;;;;1999.90;999.90;;;;;;;;;;5171718;27;20327;-80
2022/07/28 01:18:41;;;;;;;1999.90;999.90;;;;;;;;;;5150005;27;20224;-79
2022/07/28 01:21:11;;;;;;;1999.90;999.90;;;;;;;;;;5151000;27;20251;-78
2022/07/28 01:23:53;;;;;;;1999.90;999.90;;;;;;;;;;5153910;27;20284;-80
2022/07/28 01:26:34;;;;;;;1999.90;999.90;;;;;;;;;;5155889;27;20232;-79
2022/07/28 01:29:03;;;;;;;1999.90;999.90;;;;;;;;;;5151777;27;20266;-79
2022/07/28 01:31:36;;;;;;;1999.90;999.90;;;;;;;;;;5170657;27;20678;-81
2022/07/28 01:34:06;;;;;;;1999.90;999.90;;;;;;;;;;5171536;27;20233;-81
2022/07/28 01:36:38;;;;;;;1999.90;999.90;;;;;;;;;;5138591;27;20398;-80
2022/07/28 01:39:06;;;;;;;1999.90;999.90;;;;;;;;;;5134826;27;20319;-81
2022/07/28 01:41:34;;;;;;;1999.90;999.90;;;;;;;;;;5135023;27;20208;-80
2022/07/28 01:44:04;;;;;;;1999.90;999.90;;;;;;;;;;5155980;27;20239;-79
2022/07/28 01:46:33;;;;;;;1999.90;999.90;;;;;;;;;;5171297;27;20260;-80
2022/07/28 01:49:02;;;;;;;1999.90;999.90;;;;;;;;;;5134029;27;20252;-82
2022/07/28 01:51:30;;;;;;;1999.90;999.90;;;;;;;;;;5154155;27;20746;-79
2022/07/28 01:54:00;;;;;;;1999.90;999.90;;;;;;;;;;5126016;27;20228;-81
2022/07/28 01:56:29;;;;;;;1999.90;999.90;;;;;;;;;;5136378;27;20240;-78
2022/07/28 01:58:58;;;;;;;1999.90;999.90;;;;;;;;;;5156240;27;20267;-81
2022/07/28 02:01:26;;;;;;;1999.90;999.90;;;;;;;;;;5155550;27;21237;-81
2022/07/28 02:03:56;;;;;;;1999.90;999.90;;;;;;;;;;5149755;27;20806;-78
2022/07/28 02:06:24;;;;;;;1999.90;999.90;;;;;;;;;;5149241;27;20228;-80
2022/07/28 02:08:53;;;;;;;1999.90;999.90;;;;;;;;;;5137086;27;20826;-79
2022/07/28 02:14:06;;;;;;;1999.90;999.90;;;;;;;;;;5164635;27;20240;-81
2022/07/28 02:16:34;;;;;;;1999.90;999.90;;;;;;;;;;5159537;27;20236;-79
2022/07/28 02:19:04;;;;;;;1999.90;999.90;;;;;;;;;;5151719;27;20235;-81
2022/07/28 02:21:32;;;;;;;1999.90;999.90;;;;;;;;;;5154717;27;20729;-80
2022/07/28 02:24:03;;;;;;;1999.90;999.90;;;;;;;;;;5155390;27;20264;-80
2022/07/28 02:26:34;;;;;;;1999.90;999.90;;;;;;;;;;5141655;27;20224;-78
2022/07/28 02:29:03;;;;;;;1999.90;999.90;;;;;;;;;;5139102;27;20312;-80
2022/07/28 02:31:34;;;;;;;1999.90;999.90;;;;;;;;;;5139819;27;20220;-80
2022/07/28 02:34:08;;;;;;;1999.90;999.90;;;;;;;;;;5157373;27;20686;-79
2022/07/28 02:36:40;;;;;;;1999.90;999.90;;;;;;;;;;5173953;27;20299;-81
2022/07/28 02:39:15;;;;;;;1999.90;999.90;;;;;;;;;;5173656;27;20235;-79
2022/07/28 02:41:44;;;;;;;1999.90;999.90;;;;;;;;;;5168196;27;20236;-80
2022/07/28 02:44:14;;;;;;;1999.90;999.90;;;;;;;;;;5153875;27;20979;-79
2022/07/28 02:46:43;;;;;;;1999.90;999.90;;;;;;;;;;5153055;27;20323;-80
2022/07/28 02:49:16;;;;;;;1999.90;999.90;;;;;;;;;;5168405;27;20225;-80
2022/07/28 02:51:45;;;;;;;1999.90;999.90;;;;;;;;;;5153469;27;20225;-80
2022/07/28 02:54:13;;;;;;;1999.90;999.90;;;;;;;;;;5144657;27;20293;-83
2022/07/28 02:56:42;;;;;;;1999.90;999.90;;;;;;;;;;5155417;27;20232;-81
2022/07/28 02:59:21;;;;;;;1999.90;999.90;;;;;;;;;;5153886;27;20312;-81
2022/07/28 03:01:49;;;;;;;1999.90;999.90;;;;;;;;;;5170307;27;20285;-82
2022/07/28 03:04:55;;;;;;;1999.90;999.90;;;;;;;;;;5155783;27;20236;-79
2022/07/28 03:07:07;;;;;;;1999.90;999.90;;;;;;;;;;5169406;27;20231;-81
2022/07/28 03:09:38;;;;;;;1999.90;999.90;;;;;;;;;;5153940;27;21030;-81
2022/07/28 03:12:07;;;;;;;1999.90;999.90;;;;;;;;;;5168535;27;20258;-81
2022/07/28 03:14:34;;;;;;;1999.90;999.90;;;;;;;;;;5153193;27;20239;-79
2022/07/28 03:17:03;;;;;;;1999.90;999.90;;;;;;;;;;5169041;27;20336;-80
2022/07/28 03:19:32;;;;;;;1999.90;999.90;;;;;;;;;;5138170;27;20230;-80
2022/07/28 03:22:00;;;;;;;1999.90;999.90;;;;;;;;;;5153951;27;20272;-79
2022/07/28 03:24:29;;;;;;;1999.90;999.90;;;;;;;;;;5154143;27;20784;-80
2022/07/28 03:26:59;;;;;;;1999.90;999.90;;;;;;;;;;5152011;27;20220;-80
2022/07/28 03:29:28;;;;;;;1999.90;999.90;;;;;;;;;;5171658;27;20233;-80
2022/07/28 03:31:58;;;;;;;1999.90;999.90;;;;;;;;;;5134923;27;20236;-81
2022/07/28 03:34:26;;;;;;;1999.90;999.90;;;;;;;;;;5149960;27;20228;-79
2022/07/28 03:37:00;;;;;;;1999.90;999.90;;;;;;;;;;5168338;27;20289;-80
2022/07/28 03:39:29;;;;;;;1999.90;999.90;;;;;;;;;;5165256;27;20220;-81
2022/07/28 03:41:59;;;;;;;1999.90;999.90;;;;;;;;;;5164594;27;21185;-80
2022/07/28 03:44:28;;;;;;;1999.90;999.90;;;;;;;;;;5126693;27;20225;-79
2022/07/28 03:46:56;;;;;;;1999.90;999.90;;;;;;;;;;5175858;27;20316;-81
2022/07/28 03:49:24;;;;;;;1999.90;999.90;;;;;;;;;;5173075;27;20234;-79
2022/07/28 03:51:52;;;;;;;1999.90;999.90;;;;;;;;;;5153432;27;20332;-81
2022/07/28 03:54:21;;;;;;;1999.90;999.90;;;;;;;;;;5151906;27;20235;-80
2022/07/28 03:56:49;;;;;;;1999.90;999.90;;;;;;;;;;5175954;27;20226;-80
2022/07/28 03:59:17;;;;;;;1999.90;999.90;;;;;;;;;;5155792;27;22460;-82
2022/07/28 04:01:46;;;;;;;1999.90;999.90;;;;;;;;;;5165488;27;20232;-80
2022/07/28 04:04:13;;;;;;;1999.90;999.90;;;;;;;;;;5149938;27;20236;-80
2022/07/28 04:06:42;;;;;;;1999.90;999.90;;;;;;;;;;5172403;27;20708;-80
2022/07/28 04:09:10;;;;;;;1999.90;999.90;;;;;;;;;;5170345;27;20315;-81
2022/07/28 04:11:39;;;;;;;1999.90;999.90;;;;;;;;;;5170220;27;20575;-80
2022/07/28 04:14:07;;;;;;;1999.90;999.90;;;;;;;;;;5170849;27;20236;-82
2022/07/28 04:16:41;;;;;;;1999.90;999.90;;;;;;;;;;5158224;27;20239;-81
2022/07/28 04:19:09;;;;;;;1999.90;999.90;;;;;;;;;;5141726;27;20251;-80
2022/07/28 04:21:36;;;;;;;1999.90;999.90;;;;;;;;;;5177771;27;20264;-81
2022/07/28 04:24:05;;;;;;;1999.90;999.90;;;;;;;;;;5173564;27;22026;-80
2022/07/28 04:26:32;;;;;;;1999.90;999.90;;;;;;;;;;5174529;27;20240;-81
2022/07/28 04:29:02;;;;;;;1999.90;999.90;;;;;;;;;;5159003;27;20797;-82
2022/07/28 04:31:30;;;;;;;1999.90;999.90;;;;;;;;;;5148182;27;20936;-81
2022/07/28 04:33:58;;;;;;;1999.90;999.90;;;;;;;;;;5158247;27;20229;-81
2022/07/28 04:36:26;;;;;;;1999.90;999.90;;;;;;;;;;5174897;27;20285;-79
2022/07/28 04:38:56;;;;;;;1999.90;999.90;;;;;;;;;;5156816;27;20240;-78
2022/07/28 04:41:24;;;;;;;1999.90;999.90;;;;;;;;;;5173665;27;20235;-81
2022/07/28 04:43:52;;;;;;;1999.90;999.90;;;;;;;;;;5173296;27;20275;-82
2022/07/28 04:46:21;;;;;;;1999.90;999.90;;;;;;;;;;5145912;27;20295;-80
2022/07/28 04:48:49;;;;;;;1999.90;999.90;;;;;;;;;;5163792;27;20231;-80
2022/07/28 04:51:17;;;;;;;1999.90;999.90;;;;;;;;;;5163436;27;20209;-79
2022/07/28 04:53:46;;;;;;;1999.90;999.90;;;;;;;;;;5161605;27;20226;-81
2022/07/28 04:56:14;;;;;;;1999.90;999.90;;;;;;;;;;5155180;27;20260;-81
2022/07/28 04:58:42;;;;;;;1999.90;999.90;;;;;;;;;;5160212;27;20315;-81
2022/07/28 05:01:12;;;;;;;1999.90;999.90;;;;;;;;;;5158346;27;20848;-83
2022/07/28 05:06:37;;;;;;;1999.90;999.90;;;;;;;;;;5112216;27;20234;-75
2022/07/28 05:09:05;;;;;;;1999.90;999.90;;;;;;;;;;5092224;27;20226;-75
2022/07/28 05:11:33;;;;;;;1999.90;999.90;;;;;;;;;;5151936;22;20209;-77
2022/07/28 05:14:01;;;;;;;1999.90;999.90;;;;;;;;;;5141541;27;20324;-76
2022/07/28 05:16:29;;;;;;;1999.90;999.90;;;;;;;;;;5127360;27;20243;-77
2022/07/28 05:18:56;;;;;;;1999.90;999.90;;;;;;;;;;5132503;27;20244;-77
2022/07/28 05:21:24;;;;;;;1999.90;999.90;;;;;;;;;;5131682;27;20290;-77
2022/07/28 05:23:54;;;;;;;1999.90;999.90;;;;;;;;;;5169887;27;20323;-77
2022/07/28 05:26:22;;;;;;;1999.90;999.90;;;;;;;;;;5134331;27;20259;-78
2022/07/28 05:28:49;;;;;;;1999.90;999.90;;;;;;;;;;5153101;27;20289;-76
2022/07/28 05:31:17;;;;;;;1999.90;999.90;;;;;;;;;;5152431;27;20255;-77
2022/07/28 05:33:45;;;;;;;1999.90;999.90;;;;;;;;;;5170101;27;20257;-77
2022/07/28 05:36:13;;;;;;;1999.90;999.90;;;;;;;;;;5151407;27;20311;-78
2022/07/28 05:38:41;;;;;;;1999.90;999.90;;;;;;;;;;5152365;27;20323;-76
2022/07/28 05:41:11;;;;;;;1999.90;999.90;;;;;;;;;;5150602;27;20224;-77
2022/07/28 05:43:38;;;;;;;1999.90;999.90;;;;;;;;;;5150436;27;20308;-76
2022/07/28 05:46:06;;;;;;;1999.90;999.90;;;;;;;;;;5151984;27;21039;-77
2022/07/28 05:48:34;;;;;;;1999.90;999.90;;;;;;;;;;5135692;27;20229;-77
2022/07/28 05:51:05;;;;;;;1999.90;999.90;;;;;;;;;;5170210;27;20237;-77
2022/07/28 05:53:33;;;;;;;1999.90;999.90;;;;;;;;;;5132875;27;20220;-77
2022/07/28 05:56:01;;;;;;;1999.90;999.90;;;;;;;;;;5150211;27;20849;-77
2022/07/28 05:58:30;;;;;;;1999.90;999.90;;;;;;;;;;5171528;27;20625;-77
2022/07/28 06:00:59;;;;;;;1999.90;999.90;;;;;;;;;;5150883;27;20259;-77
2022/07/28 06:03:29;;;;;;;1999.90;999.90;;;;;;;;;;5149940;27;20232;-77
2022/07/28 06:05:57;;;;;;;1999.90;999.90;;;;;;;;;;5151353;27;20225;-77
2022/07/28 06:08:43;;;;;;;1999.90;999.90;;;;;;;;;;5135598;27;20319;-77
2022/07/28 06:11:11;;;;;;;1999.90;999.90;;;;;;;;;;5132796;27;20845;-77
2022/07/28 06:13:51;;;;;;;1999.90;999.90;;;;;;;;;;5150137;27;20735;-77
2022/07/28 06:16:20;;;;;;;1999.90;999.90;;;;;;;;;;5134268;27;20224;-79
2022/07/28 06:18:48;;;;;;;1999.90;999.90;;;;;;;;;;5163945;27;20268;-77
2022/07/28 06:21:16;;;;;;;1999.90;999.90;;;;;;;;;;5144456;27;20614;-77
2022/07/28 06:23:46;;;;;;;1999.90;999.90;;;;;;;;;;5151346;27;20231;-76
2022/07/28 06:26:14;;;;;;;1999.90;999.90;;;;;;;;;;5153103;27;20357;-77
2022/07/28 06:28:42;;;;;;;1999.90;999.90;;;;;;;;;;5134567;27;20225;-78
2022/07/28 06:31:11;;;;;;;1999.90;999.90;;;;;;;;;;5127995;27;20716;-78
2022/07/28 06:33:39;;;;;;;1999.90;999.90;;;;;;;;;;5151765;27;20232;-77
2022/07/28 06:36:07;;;;;;;1999.90;999.90;;;;;;;;;;5169892;27;20225;-77
2022/07/28 06:38:35;;;;;;;1999.90;999.90;;;;;;;;;;5169063;27;20301;-77
2022/07/28 06:41:03;;;;;;;1999.90;999.90;;;;;;;;;;5131756;27;20332;-68
2022/07/28 06:43:32;;;;;;;1999.90;999.90;;;;;;;;;;5169573;27;20280;-78
2022/07/28 06:46:05;;;;;;;1999.90;999.90;;;;;;;;;;5168530;27;20269;-76
2022/07/28 06:48:36;;;;;;;1999.90;999.90;;;;;;;;;;5152671;27;20224;-77
2022/07/28 06:51:04;;;;;;;1999.90;999.90;;;;;;;;;;5131528;27;20247;-77
2022/07/28 06:53:32;;;;;;;1999.90;999.90;;;;;;;;;;5150577;27;20684;-78
2022/07/28 06:56:02;;;;;;;1999.90;999.90;;;;;;;;;;5134657;27;20373;-77
2022/07/28 06:58:30;;;;;;;1999.90;999.90;;;;;;;;;;5134136;27;20225;-77
2022/07/28 07:00:58;;;;;;;1999.90;999.90;;;;;;;;;;5167597;27;20248;-78
2022/07/28 07:03:26;;;;;;;1999.90;999.90;;;;;;;;;;5166347;27;20259;-77
2022/07/28 07:05:56;;;;;;;1999.90;999.90;;;;;;;;;;5149841;27;20733;-77
2022/07/28 07:08:24;;;;;;;1999.90;999.90;;;;;;;;;;5132072;27;20228;-77
2022/07/28 07:10:52;;;;;;;1999.90;999.90;;;;;;;;;;5148328;27;20220;-76
2022/07/28 07:13:20;;;;;;;1999.90;999.90;;;;;;;;;;5168282;27;20237;-77
2022/07/28 07:15:48;;;;;;;1999.90;999.90;;;;;;;;;;5169607;27;20307;-77
2022/07/28 07:18:16;;;;;;;1999.90;999.90;;;;;;;;;;5150452;27;20272;-77
2022/07/28 07:20:44;;;;;;;1999.90;999.90;;;;;;;;;;5164425;27;21095;-78
2022/07/28 07:23:14;;;;;;;1999.90;999.90;;;;;;;;;;5149858;27;20236;-76
2022/07/28 07:25:42;;;;;;;1999.90;999.90;;;;;;;;;;5151887;27;20231;-75
2022/07/28 07:28:09;;;;;;;1999.90;999.90;;;;;;;;;;5158942;27;20229;-76
2022/07/28 07:30:37;;;;;;;1999.90;999.90;;;;;;;;;;5150413;27;20232;-76
2022/07/28 07:33:05;;;;;;;1999.90;999.90;;;;;;;;;;5146310;27;20764;-77
2022/07/28 07:35:36;;;;;;;1999.90;999.90;;;;;;;;;;5133403;27;20330;-76
2022/07/28 07:38:04;;;;;;;1999.90;999.90;;;;;;;;;;5170076;27;20228;-76
2022/07/28 07:40:34;;;;;;;1999.90;999.90;;;;;;;;;;5132020;27;20229;-75
2022/07/28 07:43:02;;;;;;;1999.90;999.90;;;;;;;;;;5139199;27;20285;-77
2022/07/28 07:45:29;;;;;;;1999.90;999.90;;;;;;;;;;5167569;27;20224;-76
2022/07/28 07:48:00;;;;;;;1999.90;999.90;;;;;;;;;;5122991;27;20340;-77
2022/07/28 07:50:28;;;;;;;1999.90;999.90;;;;;;;;;;5128412;27;20235;-77
2022/07/28 07:52:56;;;;;;;1999.90;999.90;;;;;;;;;;5146484;27;20320;-77
2022/07/28 07:55:24;;;;;;;1999.90;999.90;;;;;;;;;;5154489;27;20228;-78
2022/07/28 07:57:53;;;;;;;1999.90;999.90;;;;;;;;;;5167459;27;20307;-76
2022/07/28 08:00:21;;;;;;;1999.90;999.90;;;;;;;;;;5146820;27;20284;-77
2022/07/28 08:02:56;;;;;;;1999.90;999.90;;;;;;;;;;5136373;27;20284;-76
2022/07/28 08:05:24;;;;;;;1999.90;999.90;;;;;;;;;;5141350;27;20238;-77
2022/07/28 08:08:03;;;;;;;1999.90;999.90;;;;;;;;;;5135767;27;20228;-76
2022/07/28 08:10:31;;;;;;;1999.90;999.90;;;;;;;;;;5129261;27;20232;-76
2022/07/28 08:13:02;;;;;;;1999.90;999.90;;;;;;;;;;5144718;27;20264;-76
2022/07/28 08:15:30;;;;;;;1999.90;999.90;;;;;;;;;;5158961;27;20228;-78
2022/07/28 08:17:58;;;;;;;1999.90;999.90;;;;;;;;;;5147399;27;20810;-76
2022/07/28 08:20:26;;;;;;;1999.90;999.90;;;;;;;;;;5148527;27;20272;-76
2022/07/28 08:22:55;;;;;;;1999.90;999.90;;;;;;;;;;5143497;27;20264;-78
2022/07/28 08:25:23;;;;;;;1999.90;999.90;;;;;;;;;;5167270;27;21053;-76
2022/07/28 08:27:51;;;;;;;1999.90;999.90;;;;;;;;;;5164676;27;21088;-76
2022/07/28 08:30:21;;;;;;;1999.90;999.90;;;;;;;;;;5158979;27;20318;-76
2022/07/28 08:32:56;;;;;;;1999.90;999.90;;;;;;;;;;5143904;27;20247;-76
2022/07/28 08:35:25;;;;;;;1999.90;999.90;;;;;;;;;;5144772;27;20224;-78
2022/07/28 08:38:03;;;;;;;1999.90;999.90;;;;;;;;;;5142024;27;20220;-77
2022/07/28 08:40:32;;;;;;;1999.90;999.90;;;;;;;;;;5162285;27;20270;-78
2022/07/28 08:43:03;;;;;;;1999.90;999.90;;;;;;;;;;5122610;27;20285;-78
2022/07/28 08:45:32;;;;;;;1999.90;999.90;;;;;;;;;;5139765;27;20343;-77
2022/07/28 08:48:05;;;;;;;1999.90;999.90;;;;;;;;;;5143262;27;20231;-78
2022/07/28 08:50:36;;;;;;;1999.90;999.90;;;;;;;;;;5115945;27;20221;-77
2022/07/28 08:53:04;;;;;;;1999.90;999.90;;;;;;;;;;5151363;27;20728;-77
2022/07/28 08:55:33;;;;;;;1999.90;999.90;;;;;;;;;;5118526;27;20756;-77
2022/07/28 08:58:01;;;;;;;1999.90;999.90;;;;;;;;;;5143682;27;20254;-77
2022/07/28 09:00:29;;;;;;;1999.90;999.90;;;;;;;;;;5119345;27;20232;-75
2022/07/28 09:02:59;;;;;;;1999.90;999.90;;;;;;;;;;5145870;27;20609;-80
2022/07/28 09:05:28;;;;;;;1999.90;999.90;;;;;;;;;;5150887;27;20229;-76
2022/07/28 09:07:56;;;;;;;1999.90;999.90;;;;;;;;;;5167141;27;20220;-77
2022/07/28 09:10:23;;;;;;;1999.90;999.90;;;;;;;;;;5147781;27;20277;-78
2022/07/28 09:12:51;;;;;;;1999.90;999.90;;;;;;;;;;5150621;27;20621;-77
2022/07/28 09:15:19;;;;;;;1999.90;999.90;;;;;;;;;;5134769;27;20220;-78
2022/07/28 09:17:47;;;;;;;1999.90;999.90;;;;;;;;;;5148493;27;20744;-79
2022/07/28 09:20:17;;;;;;;1999.90;999.90;;;;;;;;;;5169325;27;20256;-77
2022/07/28 09:22:54;;;;;;;1999.90;999.90;;;;;;;;;;5148896;27;20228;-78
2022/07/28 09:25:22;;;;;;;1999.90;999.90;;;;;;;;;;5139627;27;20235;-79
2022/07/28 09:27:51;;;;;;;1999.90;999.90;;;;;;;;;;5169043;27;20232;-77
2022/07/28 09:30:27;;;;;;;1999.90;999.90;;;;;;;;;;5148461;27;20732;-79
2022/07/28 09:33:10;;;;;;;1999.90;999.90;;;;;;;;;;5149003;27;20250;-78
2022/07/28 09:35:59;;;;;;;1999.90;999.90;;;;;;;;;;5168332;27;20232;-78
2022/07/28 09:38:39;;;;;;;1999.90;999.90;;;;;;;;;;5169775;27;20286;-77
2022/07/28 09:41:07;;;;;;;1999.90;999.90;;;;;;;;;;5166844;27;20264;-79
2022/07/28 09:43:35;;;;;;;1999.90;999.90;;;;;;;;;;5128190;27;20283;-78
2022/07/28 09:46:04;;;;;;;1999.90;999.90;;;;;;;;;;5133998;27;20220;-79
2022/07/28 09:48:32;;;;;;;1999.90;999.90;;;;;;;;;;5149025;27;20217;-76
2022/07/28 09:51:13;;;;;;;1999.90;999.90;;;;;;;;;;5167055;27;20269;-77
2022/07/28 09:53:41;;;;;;;1999.90;999.90;;;;;;;;;;5131113;27;20304;-77
2022/07/28 09:56:09;;;;;;;1999.90;999.90;;;;;;;;;;5168142;27;20220;-77
2022/07/28 09:58:38;;;;;;;1999.90;999.90;;;;;;;;;;5144627;27;21452;-77
2022/07/28 10:01:07;;;;;;;1999.90;999.90;;;;;;;;;;5167891;27;20229;-77
2022/07/28 10:03:36;;;;;;;1999.90;999.90;;;;;;;;;;5165824;27;20331;-76
2022/07/28 10:06:08;;;;;;;1999.90;999.90;;;;;;;;;;5144660;27;20318;-77
2022/07/28 10:08:41;;;;;;;1999.90;999.90;;;;;;;;;;5146656;27;20232;-76
2022/07/28 10:11:09;;;;;;;1999.90;999.90;;;;;;;;;;5165887;27;20229;-78
2022/07/28 10:13:50;;;;;;;1999.90;999.90;;;;;;;;;;5121677;27;20254;-76
2022/07/28 10:16:19;;;;;;;1999.90;999.90;;;;;;;;;;5150109;27;20670;-76
2022/07/28 10:18:47;;;;;;;1999.90;999.90;;;;;;;;;;5131625;27;20231;-78
2022/07/28 10:21:16;;;;;;;1999.90;999.90;;;;;;;;;;5166816;27;20229;-76
2022/07/28 10:23:48;;;;;;;1999.90;999.90;;;;;;;;;;5146144;27;20239;-78
2022/07/28 10:26:17;;;;;;;1999.90;999.90;;;;;;;;;;5143675;27;20263;-80
2022/07/28 10:28:47;;;;;;;1999.90;999.90;;;;;;;;;;5169949;27;20297;-76
2022/07/28 10:31:20;;;;;;;1999.90;999.90;;;;;;;;;;5160780;27;20252;-76
2022/07/28 10:33:48;;;;;;;1999.90;999.90;;;;;;;;;;5165852;27;20693;-76
2022/07/28 10:36:17;;;;;;;1999.90;999.90;;;;;;;;;;5149945;27;20299;-77
2022/07/28 10:38:49;;;;;;;1999.90;999.90;;;;;;;;;;5141840;27;20689;-77
2022/07/28 10:41:19;;;;;;;1999.90;999.90;;;;;;;;;;5157053;27;20751;-77
2022/07/28 10:43:47;;;;;;;1999.90;999.90;;;;;;;;;;5163916;27;20300;-77
2022/07/28 10:46:15;;;;;;;1999.90;999.90;;;;;;;;;;5146712;27;20742;-77
2022/07/28 10:48:44;;;;;;;1999.90;999.90;;;;;;;;;;5145393;27;20224;-82
2022/07/28 10:51:12;;;;;;;1999.90;999.90;;;;;;;;;;5161401;27;20220;-78
2022/07/28 10:53:43;;;;;;;1999.90;999.90;;;;;;;;;;5166933;27;20224;-76
2022/07/28 10:56:15;;;;;;;1999.90;999.90;;;;;;;;;;5135952;27;20229;-78
2022/07/28 10:58:49;;;;;;;1999.90;999.90;;;;;;;;;;5164037;27;20229;-76
2022/07/28 11:01:38;;;;;;;1999.90;999.90;;;;;;;;;;5167110;27;20315;-78
2022/07/28 11:04:35;;;;;;;1999.90;999.90;;;;;;;;;;5142103;27;20723;-77
2022/07/28 11:07:10;;;;;;;1999.90;999.90;;;;;;;;;;5164057;27;20289;-77
2022/07/28 11:09:38;;;;;;;1999.90;999.90;;;;;;;;;;5160840;27;20251;-77
2022/07/28 11:12:08;;;;;;;1999.90;999.90;;;;;;;;;;5138760;27;20319;-79
2022/07/28 11:14:37;;;;;;;1999.90;999.90;;;;;;;;;;5118333;22;20333;-75
2022/07/28 11:17:16;;;;;;;1999.90;999.90;;;;;;;;;;5103194;27;20231;-76
2022/07/28 11:19:52;;;;;;;1999.90;999.90;;;;;;;;;;5070698;27;20313;-75
2022/07/28 11:22:40;;;;;;;1999.90;999.90;;;;;;;;;;5105305;27;20265;-75
2022/07/28 11:25:15;;;;;;;1999.90;999.90;;;;;;;;;;5103127;27;20246;-75
2022/07/28 11:28:03;;;;;;;1999.90;999.90;;;;;;;;;;5086808;28;20946;-75
2022/07/28 11:30:50;;;;;;;1999.90;999.90;;;;;;;;;;5103742;27;20234;-74
2022/07/28 11:33:19;;;;;;;1999.90;999.90;;;;;;;;;;5083653;27;20231;-74
2022/07/28 11:35:54;;;;;;;1999.90;999.90;;;;;;;;;;5102174;27;20234;-76
2022/07/28 11:38:22;;;;;;;1999.90;999.90;;;;;;;;;;5104161;27;20230;-76
2022/07/28 11:40:51;;;;;;;1999.90;999.90;;;;;;;;;;5105522;27;20349;-73
2022/07/28 11:43:30;;;;;;;1999.90;999.90;;;;;;;;;;5099143;27;20250;-72
2022/07/28 11:46:35;;;;;;;1999.90;999.90;;;;;;;;;;5084147;27;20230;-73
2022/07/28 11:49:21;;;;;;;1999.90;999.90;;;;;;;;;;5085526;27;20287;-77
2022/07/28 11:52:08;;;;;;;1999.90;999.90;;;;;;;;;;5066856;28;20226;-72
2022/07/28 11:54:37;;;;;;;1999.90;999.90;;;;;;;;;;5103845;27;20235;-71
2022/07/28 11:57:08;;;;;;;1999.90;999.90;;;;;;;;;;5086286;27;20222;-73
2022/07/28 11:59:44;;;;;;;1999.90;999.90;;;;;;;;;;5103404;27;20392;-72
2022/07/28 12:02:20;;;;;;;1999.90;999.90;;;;;;;;;;5086267;27;21105;-73
2022/07/28 12:04:55;;;;;;;1999.90;999.90;;;;;;;;;;5105511;27;20678;-73
2022/07/28 12:07:27;;;;;;;1999.90;999.90;;;;;;;;;;5085218;27;20230;-73
2022/07/28 12:09:57;;;;;;;1999.90;999.90;;;;;;;;;;5106493;27;20250;-71
2022/07/28 12:12:26;;;;;;;1999.90;999.90;;;;;;;;;;5103098;27;20724;-71
2022/07/28 12:14:56;;;;;;;1999.90;999.90;;;;;;;;;;5087278;27;20268;-75
2022/07/28 12:17:33;;;;;;;1999.90;999.90;;;;;;;;;;5085588;28;20244;-74
2022/07/28 12:20:02;;;;;;;1999.90;999.90;;;;;;;;;;5104535;27;20226;-72
2022/07/28 12:22:30;;;;;;;1999.90;999.90;;;;;;;;;;5104893;27;20285;-73
2022/07/28 12:24:59;;;;;;;1999.90;999.90;;;;;;;;;;5090200;27;20250;-72
2022/07/28 12:27:27;;;;;;;1999.90;999.90;;;;;;;;;;5102801;27;20234;-71
2022/07/28 12:30:00;;;;;;;1999.90;999.90;;;;;;;;;;5105578;27;20218;-71
2022/07/28 12:32:33;;;;;;;1999.90;999.90;;;;;;;;;;5084190;27;21060;-71
2022/07/28 12:35:01;;;;;;;1999.90;999.90;;;;;;;;;;5090173;27;20708;-73
2022/07/28 12:37:29;;;;;;;1999.90;999.90;;;;;;;;;;5105533;27;20269;-72
2022/07/28 12:39:57;;;;;;;1999.90;999.90;;;;;;;;;;5072893;27;20894;-71
2022/07/28 12:42:30;;;;;;;1999.90;999.90;;;;;;;;;;5089609;27;20249;-72
2022/07/28 12:45:04;;;;;;;1999.90;999.90;;;;;;;;;;5090208;27;20230;-73
2022/07/28 12:47:32;;;;;;;1999.90;999.90;;;;;;;;;;5106344;27;20233;-74
2022/07/28 12:50:13;;;;;;;1999.90;999.90;;;;;;;;;;5072568;27;20238;-72
2022/07/28 12:52:41;;;;;;;1999.90;999.90;;;;;;;;;;5108037;27;20230;-73
2022/07/28 12:55:21;;;;;;;1999.90;999.90;;;;;;;;;;5107908;27;20316;-71
2022/07/28 12:57:50;;;;;;;1999.90;999.90;;;;;;;;;;5108702;27;20299;-74
2022/07/28 13:00:21;;;;;;;1999.90;999.90;;;;;;;;;;5105627;27;20222;-74
2022/07/28 13:02:51;;;;;;;1999.90;999.90;;;;;;;;;;5107854;27;20361;-72
2022/07/28 13:06:00;;;;;;;1999.90;999.90;;;;;;;;;;5106157;27;20238;-75
2022/07/28 13:08:21;;;;;;;1999.90;999.90;;;;;;;;;;5088867;27;20225;-72
2022/07/28 13:10:50;;;;;;;1999.90;999.90;;;;;;;;;;5089441;28;20231;-72
2022/07/28 13:13:23;;;;;;;1999.90;999.90;;;;;;;;;;5071806;27;20222;-72
2022/07/28 13:16:09;;;;;;;1999.90;999.90;;;;;;;;;;5109102;27;20292;-71
2022/07/28 13:18:42;;;;;;;1999.90;999.90;;;;;;;;;;5087714;27;20245;-72
2022/07/28 13:21:10;;;;;;;1999.90;999.90;;;;;;;;;;5106861;27;20227;-73
2022/07/28 13:23:38;;;;;;;1999.90;999.90;;;;;;;;;;5106887;27;20246;-70
2022/07/28 13:26:06;;;;;;;1999.90;999.90;;;;;;;;;;5108939;27;20945;-72
2022/07/28 13:28:34;;;;;;;1999.90;999.90;;;;;;;;;;5084967;28;20238;-72
2022/07/28 13:31:02;;;;;;;1999.90;999.90;;;;;;;;;;5104644;27;20231;-71
2022/07/28 13:33:30;;;;;;;1999.90;999.90;;;;;;;;;;5087201;28;20430;-73
2022/07/28 13:35:59;;;;;;;1999.90;999.90;;;;;;;;;;5081827;27;20399;-72
2022/07/28 13:38:27;;;;;;;1999.90;999.90;;;;;;;;;;5105101;27;20403;-72
2022/07/28 13:40:56;;;;;;;1999.90;999.90;;;;;;;;;;5082919;27;20285;-74
2022/07/28 13:43:24;;;;;;;1999.90;999.90;;;;;;;;;;5103588;27;20326;-74
2022/07/28 13:46:04;;;;;;;1999.90;999.90;;;;;;;;;;5070542;27;20230;-73
2022/07/28 13:48:34;;;;;;;1999.90;999.90;;;;;;;;;;5104679;27;20813;-72
2022/07/28 13:51:04;;;;;;;1999.90;999.90;;;;;;;;;;5102306;27;20317;-72
2022/07/28 13:53:34;;;;;;;1999.90;999.90;;;;;;;;;;5103338;27;20237;-72
2022/07/28 13:56:06;;;;;;;1999.90;999.90;;;;;;;;;;5088995;27;20302;-75
2022/07/28 13:58:34;;;;;;;1999.90;999.90;;;;;;;;;;5086673;28;20231;-74
2022/07/28 14:01:02;;;;;;;1999.90;999.90;;;;;;;;;;5088446;27;20233;-72
2022/07/28 14:03:31;;;;;;;1999.90;999.90;;;;;;;;;;5105256;27;20332;-73
2022/07/28 14:06:20;;;;;;;1999.90;999.90;;;;;;;;;;5086214;27;20238;-73
2022/07/28 14:08:48;;;;;;;1999.90;999.90;;;;;;;;;;5072407;28;20233;-72